createdAt,value
2022-10-17T00:00:23.063Z,10.42
2022-10-17T00:03:10.582Z,10.35
2022-10-17T00:05:46.046Z,10.43
2022-10-17T00:08:15.255Z,10.36
2022-10-17T00:10:42.332Z,10.29
2022-10-17T00:13:10.122Z,10.30
2022-10-17T00:15:37.451Z,10.27
2022-10-17T00:18:04.996Z,10.23
2022-10-17T00:20:34.613Z,10.11
2022-10-17T00:23:01.578Z,10.12
2022-10-17T00:25:28.320Z,10.13
2022-10-17T00:27:55.280Z,10.03
2022-10-17T00:30:22.029Z,10.08
2022-10-17T00:32:48.957Z,10.10
2022-10-17T00:35:15.692Z,10.12
2022-10-17T00:37:42.751Z,10.04
2022-10-17T00:40:10.249Z,10.16
2022-10-17T00:42:39.412Z,10.12
2022-10-17T00:45:20.756Z,9.97
2022-10-17T00:48:09.368Z,10.04
2022-10-17T00:50:39.674Z,9.97
2022-10-17T00:53:08.559Z,9.94
2022-10-17T00:55:42.398Z,9.86
2022-10-17T00:58:09.504Z,9.84
2022-10-17T01:00:37.011Z,9.88
2022-10-17T01:03:04.016Z,9.85
2022-10-17T01:05:30.985Z,9.91
2022-10-17T01:07:58.050Z,9.76
2022-10-17T01:10:31.940Z,9.72
2022-10-17T01:13:11.572Z,9.79
2022-10-17T01:15:59.767Z,9.79
2022-10-17T01:18:43.268Z,9.77
2022-10-17T01:21:33.131Z,9.72
2022-10-17T01:24:18.287Z,9.72
2022-10-17T01:27:15.324Z,9.70
2022-10-17T01:29:54.025Z,9.63
2022-10-17T01:32:40.921Z,9.67
2022-10-17T01:35:24.170Z,9.65
2022-10-17T01:38:03.928Z,9.65
2022-10-17T01:40:50.987Z,9.52
2022-10-17T01:43:33.923Z,9.49
2022-10-17T01:46:13.129Z,9.50
2022-10-17T01:48:44.263Z,9.48
2022-10-17T01:51:42.239Z,9.38
2022-10-17T01:54:19.747Z,9.39
2022-10-17T01:56:50.222Z,9.41
2022-10-17T01:59:22.254Z,9.39
2022-10-17T02:01:53.382Z,9.39
2022-10-17T02:04:20.582Z,9.37
2022-10-17T02:06:47.654Z,9.37
2022-10-17T02:09:26.002Z,9.36
2022-10-17T02:12:10.700Z,9.40
2022-10-17T02:15:08.473Z,9.31
2022-10-17T02:17:57.841Z,9.27
2022-10-17T02:20:47.739Z,9.37
2022-10-17T02:23:26.615Z,9.32
2022-10-17T02:26:05.273Z,9.31
2022-10-17T02:28:41.384Z,9.31
2022-10-17T02:31:17.913Z,9.26
2022-10-17T02:33:48.029Z,9.21
2022-10-17T02:36:24.499Z,9.32
2022-10-17T02:38:54.703Z,9.17
2022-10-17T02:41:23.604Z,9.06
2022-10-17T02:43:52.951Z,9.12
2022-10-17T02:46:23.503Z,9.10
2022-10-17T02:49:03.385Z,9.01
2022-10-17T02:51:42.848Z,8.90
2022-10-17T02:54:32.115Z,8.95
2022-10-17T02:57:32.802Z,8.95
2022-10-17T03:00:03.175Z,8.97
2022-10-17T03:02:39.100Z,8.90
2022-10-17T03:05:06.656Z,8.93
2022-10-17T03:07:33.415Z,8.92
2022-10-17T03:10:00.326Z,8.97
2022-10-17T03:12:27.398Z,8.90
2022-10-17T03:14:54.742Z,8.92
2022-10-17T03:17:21.462Z,8.81
2022-10-17T03:19:48.419Z,8.84
2022-10-17T03:22:15.139Z,8.74
2022-10-17T03:24:42.115Z,8.74
2022-10-17T03:27:08.832Z,8.81
2022-10-17T03:29:35.750Z,8.81
2022-10-17T03:32:02.573Z,8.74
2022-10-17T03:34:29.548Z,8.75
2022-10-17T03:36:56.284Z,8.82
2022-10-17T03:39:23.300Z,8.77
2022-10-17T03:41:50.141Z,8.78
2022-10-17T03:44:17.077Z,8.72
2022-10-17T03:46:43.865Z,8.76
2022-10-17T03:49:10.802Z,8.72
2022-10-17T03:51:37.833Z,8.73
2022-10-17T03:54:04.839Z,8.67
2022-10-17T03:56:31.601Z,8.74
2022-10-17T03:58:58.581Z,8.78
2022-10-17T04:01:25.556Z,8.80
2022-10-17T04:03:54.864Z,8.68
2022-10-17T04:06:22.537Z,8.67
2022-10-17T04:08:50.337Z,8.72
2022-10-17T04:11:19.620Z,8.73
2022-10-17T04:13:46.529Z,8.65
2022-10-17T04:16:16.130Z,8.58
2022-10-17T04:18:44.183Z,8.56
2022-10-17T04:21:12.423Z,8.59
2022-10-17T04:23:39.739Z,8.57
2022-10-17T04:26:07.057Z,8.60
2022-10-17T04:28:35.681Z,8.63
2022-10-17T04:31:08.103Z,8.62
2022-10-17T04:33:35.226Z,8.61
2022-10-17T04:36:04.484Z,8.59
2022-10-17T04:38:32.195Z,8.67
2022-10-17T04:41:04.676Z,8.58
2022-10-17T04:43:33.271Z,8.60
2022-10-17T04:46:01.853Z,8.61
2022-10-17T04:48:29.911Z,8.52
2022-10-17T04:50:58.740Z,8.43
2022-10-17T04:53:27.032Z,8.47
2022-10-17T04:55:54.207Z,8.52
2022-10-17T04:58:22.366Z,8.44
2022-10-17T05:00:49.439Z,8.45
2022-10-17T05:03:16.795Z,8.43
2022-10-17T05:05:43.865Z,8.46
2022-10-17T05:08:11.737Z,8.42
2022-10-17T05:10:44.691Z,8.55
2022-10-17T05:13:12.116Z,8.54
2022-10-17T05:15:39.199Z,8.61
2022-10-17T05:18:06.714Z,8.52
2022-10-17T05:20:33.561Z,8.54
2022-10-17T05:23:01.053Z,8.50
2022-10-17T05:25:27.772Z,8.58
2022-10-17T05:27:54.725Z,8.47
2022-10-17T05:30:21.504Z,8.49
2022-10-17T05:32:48.482Z,8.50
2022-10-17T05:35:15.213Z,8.46
2022-10-17T05:37:42.132Z,8.47
2022-10-17T05:40:09.363Z,8.57
2022-10-17T05:42:36.321Z,8.55
2022-10-17T05:45:03.927Z,8.62
2022-10-17T05:47:31.914Z,8.66
2022-10-17T05:49:58.883Z,8.71
2022-10-17T05:52:25.828Z,8.77
2022-10-17T05:54:52.621Z,8.86
2022-10-17T05:57:19.540Z,8.93
2022-10-17T05:59:46.283Z,8.96
2022-10-17T06:02:13.918Z,8.91
2022-10-17T06:04:45.409Z,8.99
2022-10-17T06:07:13.099Z,9.10
2022-10-17T06:09:40.204Z,9.17
2022-10-17T06:12:08.045Z,9.22
2022-10-17T06:14:35.023Z,9.33
2022-10-17T06:17:02.184Z,9.43
2022-10-17T06:19:28.951Z,9.39
2022-10-17T06:21:55.897Z,9.47
2022-10-17T06:24:22.804Z,9.64
2022-10-17T06:26:50.044Z,9.71
2022-10-17T06:29:17.176Z,9.76
2022-10-17T06:31:44.224Z,9.80
2022-10-17T06:34:11.067Z,9.82
2022-10-17T06:36:38.053Z,9.92
2022-10-17T06:39:04.977Z,10.03
2022-10-17T06:41:31.979Z,10.12
2022-10-17T06:43:58.830Z,10.22
2022-10-17T06:46:26.883Z,10.25
2022-10-17T06:48:53.631Z,10.32
2022-10-17T06:51:20.630Z,10.42
2022-10-17T06:53:47.415Z,10.50
2022-10-17T06:56:14.428Z,10.60
2022-10-17T06:58:41.490Z,10.67
2022-10-17T07:01:13.086Z,10.75
2022-10-17T07:03:40.984Z,10.86
2022-10-17T07:06:11.005Z,11.00
2022-10-17T07:08:38.178Z,11.12
2022-10-17T07:11:18.566Z,11.32
2022-10-17T07:13:45.642Z,11.55
2022-10-17T07:16:13.810Z,11.68
2022-10-17T07:18:41.621Z,11.85
2022-10-17T07:21:09.374Z,11.99
2022-10-17T07:23:37.324Z,12.15
2022-10-17T07:26:07.705Z,12.40
2022-10-17T07:28:36.304Z,12.52
2022-10-17T07:31:11.832Z,12.75
2022-10-17T07:33:38.673Z,13.03
2022-10-17T07:36:06.062Z,13.18
2022-10-17T07:38:33.548Z,13.27
2022-10-17T07:41:02.520Z,13.43
2022-10-17T07:43:30.533Z,13.58
2022-10-17T07:45:57.485Z,13.66
2022-10-17T07:48:25.287Z,13.81
2022-10-17T07:50:52.411Z,13.98
2022-10-17T07:53:19.434Z,14.20
2022-10-17T07:55:47.887Z,14.38
2022-10-17T07:58:15.436Z,14.60
2022-10-17T08:00:42.465Z,14.76
2022-10-17T08:03:10.930Z,14.92
2022-10-17T08:05:38.148Z,14.93
2022-10-17T08:08:05.001Z,14.99
2022-10-17T08:10:32.005Z,15.12
2022-10-17T08:12:59.129Z,15.31
2022-10-17T08:15:29.432Z,15.32
2022-10-17T08:17:59.327Z,15.54
2022-10-17T08:20:26.680Z,15.64
2022-10-17T08:22:55.180Z,15.88
2022-10-17T08:25:22.889Z,15.98
2022-10-17T08:27:50.035Z,16.15
2022-10-17T08:30:17.513Z,16.24
2022-10-17T08:32:44.363Z,16.41
2022-10-17T08:35:11.427Z,16.52
2022-10-17T08:37:38.311Z,16.69
2022-10-17T08:40:05.912Z,16.92
2022-10-17T08:42:41.700Z,17.17
2022-10-17T08:45:21.151Z,17.30
2022-10-17T08:47:57.798Z,17.56
2022-10-17T08:50:42.959Z,17.72
2022-10-17T08:53:45.433Z,17.84
2022-10-17T08:56:44.185Z,17.95
2022-10-17T08:59:18.968Z,18.22
2022-10-17T09:01:53.920Z,18.44
2022-10-17T09:04:29.618Z,18.66
2022-10-17T09:07:09.865Z,18.69
2022-10-17T09:10:09.012Z,18.67
2022-10-17T09:13:05.337Z,18.81
2022-10-17T09:15:45.506Z,19.10
2022-10-17T09:18:29.495Z,19.44
2022-10-17T09:20:59.273Z,19.39
2022-10-17T09:23:42.620Z,19.59
2022-10-17T09:26:10.744Z,19.94
2022-10-17T09:28:39.729Z,20.03
2022-10-17T09:31:12.420Z,20.44
2022-10-17T09:34:00.231Z,20.49
2022-10-17T09:36:33.077Z,20.73
2022-10-17T09:39:02.853Z,20.99
2022-10-17T09:41:46.769Z,21.17
2022-10-17T09:44:16.312Z,21.22
2022-10-17T09:47:07.348Z,21.47
2022-10-17T09:49:40.343Z,21.65
2022-10-17T09:52:14.567Z,21.81
2022-10-17T09:54:48.884Z,22.11
2022-10-17T09:57:17.965Z,22.07
2022-10-17T09:59:48.053Z,22.41
2022-10-17T10:02:19.304Z,22.37
2022-10-17T10:05:24.606Z,21.94
2022-10-17T10:08:06.789Z,22.22
2022-10-17T10:10:33.920Z,22.10
2022-10-17T10:13:04.925Z,22.72
2022-10-17T10:15:41.312Z,22.82
2022-10-17T10:21:08.831Z,22.31
2022-10-17T10:23:41.026Z,21.62
2022-10-17T10:26:49.424Z,21.97
2022-10-17T10:29:21.133Z,21.55
2022-10-17T10:31:49.218Z,21.78
2022-10-17T10:34:37.190Z,22.21
2022-10-17T10:37:18.918Z,22.78
2022-10-17T10:39:58.597Z,22.58
2022-10-17T10:42:28.233Z,22.55
2022-10-17T10:44:59.179Z,22.41
2022-10-17T10:47:32.599Z,22.61
2022-10-17T10:50:17.306Z,22.80
2022-10-17T10:52:52.419Z,23.13
2022-10-17T10:55:31.481Z,23.51
2022-10-17T10:58:04.437Z,23.49
2022-10-17T11:00:34.394Z,23.57
2022-10-17T11:03:26.480Z,23.46
2022-10-17T11:06:00.649Z,23.37
2022-10-17T11:08:49.084Z,22.42
2022-10-17T11:11:38.716Z,23.01
2022-10-17T11:14:13.138Z,23.55
2022-10-17T11:16:44.675Z,23.38
2022-10-17T11:19:25.739Z,23.85
2022-10-17T11:21:58.432Z,23.81
2022-10-17T11:24:31.431Z,23.79
2022-10-17T11:27:01.451Z,24.24
2022-10-17T11:29:32.238Z,24.11
2022-10-17T11:32:06.659Z,24.70
2022-10-17T11:34:40.891Z,23.87
2022-10-17T11:37:24.623Z,24.05
2022-10-17T11:39:59.987Z,24.27
2022-10-17T11:42:36.024Z,23.91
2022-10-17T11:45:09.509Z,23.71
2022-10-17T11:47:39.473Z,23.65
2022-10-17T11:53:25.967Z,23.91
2022-10-17T11:55:55.301Z,24.08
2022-10-17T11:58:55.121Z,23.71
2022-10-17T12:01:38.088Z,24.21
2022-10-17T12:04:49.547Z,24.45
2022-10-17T12:10:19.480Z,23.41
2022-10-17T12:12:48.156Z,23.10
2022-10-17T12:15:23.356Z,22.39
2022-10-17T12:18:03.088Z,22.38
2022-10-17T12:20:31.784Z,22.01
2022-10-17T12:23:06.956Z,21.80
2022-10-17T12:28:45.775Z,21.67
2022-10-17T12:31:19.862Z,21.69
2022-10-17T12:33:46.797Z,21.67
2022-10-17T12:36:22.167Z,21.43
2022-10-17T12:39:02.224Z,21.40
2022-10-17T12:41:41.341Z,21.51
2022-10-17T12:44:14.688Z,21.48
2022-10-17T12:46:56.986Z,21.53
2022-10-17T12:49:41.564Z,21.58
2022-10-17T12:52:11.219Z,21.31
2022-10-17T12:54:47.696Z,21.40
2022-10-17T12:57:50.400Z,21.38
2022-10-17T13:00:43.822Z,21.29
2022-10-17T13:03:22.043Z,21.30
2022-10-17T13:05:52.586Z,21.31
2022-10-17T13:08:28.310Z,21.13
2022-10-17T13:10:56.671Z,21.14
2022-10-17T13:13:35.487Z,21.04
2022-10-17T13:16:02.455Z,21.11
2022-10-17T13:18:30.446Z,21.22
2022-10-17T13:21:15.361Z,21.24
2022-10-17T13:23:42.394Z,21.14
2022-10-17T13:26:21.590Z,21.24
2022-10-17T13:29:11.229Z,21.16
2022-10-17T13:31:41.135Z,21.08
2022-10-17T13:34:19.509Z,21.23
2022-10-17T13:36:49.142Z,21.20
2022-10-17T13:39:32.693Z,21.29
2022-10-17T13:42:21.644Z,21.27
2022-10-17T13:44:48.994Z,21.34
2022-10-17T13:47:28.438Z,21.19
2022-10-17T13:49:56.692Z,21.17
2022-10-17T13:52:26.968Z,21.21
2022-10-17T13:54:54.519Z,21.16
2022-10-17T13:57:21.527Z,21.17
2022-10-17T13:59:52.286Z,21.29
2022-10-17T14:02:27.743Z,21.29
2022-10-17T14:05:22.915Z,21.36
2022-10-17T14:10:43.364Z,21.33
2022-10-17T14:13:25.829Z,21.38
2022-10-17T14:15:59.196Z,21.36
2022-10-17T14:18:36.709Z,21.25
2022-10-17T14:21:36.827Z,21.27
2022-10-17T14:24:11.986Z,21.23
2022-10-17T14:26:54.763Z,21.24
2022-10-17T14:29:31.566Z,21.07
2022-10-17T14:32:02.147Z,20.99
2022-10-17T14:34:37.487Z,21.00
2022-10-17T14:37:40.415Z,20.98
2022-10-17T14:40:08.031Z,21.01
2022-10-17T14:42:40.064Z,21.01
2022-10-17T14:45:12.589Z,20.92
2022-10-17T14:47:43.584Z,20.96
2022-10-17T14:50:10.992Z,20.97
2022-10-17T14:52:39.017Z,20.74
2022-10-17T14:55:28.159Z,20.76
2022-10-17T14:57:55.045Z,20.69
2022-10-17T15:00:23.221Z,20.61
2022-10-17T15:02:51.959Z,20.69
2022-10-17T15:05:20.437Z,20.47
2022-10-17T15:07:47.188Z,20.47
2022-10-17T15:10:35.168Z,20.41
2022-10-17T15:13:27.111Z,20.22
2022-10-17T15:15:52.152Z,20.05
2022-10-17T15:18:22.232Z,19.83
2022-10-17T15:20:55.324Z,19.66
2022-10-17T15:23:31.716Z,19.54
2022-10-17T15:26:11.156Z,19.71
2022-10-17T15:28:43.272Z,19.55
2022-10-17T15:31:15.752Z,19.62
2022-10-17T15:33:43.319Z,19.38
2022-10-17T15:36:29.667Z,19.24
2022-10-17T15:39:01.570Z,19.03
2022-10-17T15:41:30.609Z,18.89
2022-10-17T15:43:59.018Z,18.72
2022-10-17T15:46:30.355Z,18.63
2022-10-17T15:49:01.221Z,18.43
2022-10-17T15:51:28.270Z,18.50
2022-10-17T15:53:55.029Z,18.21
2022-10-17T15:56:30.039Z,17.94
2022-10-17T15:58:57.675Z,17.79
2022-10-17T16:01:28.123Z,17.63
2022-10-17T16:03:55.734Z,17.36
2022-10-17T16:06:23.371Z,17.19
2022-10-17T16:08:50.728Z,17.04
2022-10-17T16:11:34.751Z,17.02
2022-10-17T16:14:02.544Z,16.82
2022-10-17T16:16:29.722Z,16.68
2022-10-17T16:18:58.722Z,16.54
2022-10-17T16:21:28.899Z,16.42
2022-10-17T16:23:55.691Z,16.31
2022-10-17T16:26:23.059Z,16.22
2022-10-17T16:28:49.865Z,16.16
2022-10-17T16:31:24.348Z,16.03
2022-10-17T16:33:53.409Z,15.93
2022-10-17T16:36:20.658Z,15.75
2022-10-17T16:38:48.238Z,15.62
2022-10-17T16:41:27.987Z,15.57
2022-10-17T16:43:57.537Z,15.37
2022-10-17T16:46:27.418Z,15.36
2022-10-17T16:48:55.181Z,15.38
2022-10-17T16:51:22.668Z,15.25
2022-10-17T16:53:52.748Z,15.07
2022-10-17T16:56:22.440Z,15.04
2022-10-17T16:58:50.372Z,15.06
2022-10-17T17:01:20.309Z,14.93
2022-10-17T17:03:47.784Z,14.89
2022-10-17T17:06:17.252Z,14.81
2022-10-17T17:08:44.042Z,14.74
2022-10-17T17:11:13.286Z,14.61
2022-10-17T17:13:41.328Z,14.66
2022-10-17T17:16:22.945Z,14.65
2022-10-17T17:18:54.684Z,14.57
2022-10-17T17:21:22.205Z,14.51
2022-10-17T17:23:49.263Z,14.42
2022-10-17T17:26:19.423Z,14.31
2022-10-17T17:28:47.346Z,14.26
2022-10-17T17:31:20.150Z,14.23
2022-10-17T17:33:47.104Z,14.20
2022-10-17T17:36:18.439Z,14.16
2022-10-17T17:38:45.616Z,14.07
2022-10-17T17:41:14.316Z,14.02
2022-10-17T17:43:42.276Z,13.95
2022-10-17T17:46:09.838Z,14.01
2022-10-17T17:48:41.011Z,13.94
2022-10-17T17:51:09.970Z,13.94
2022-10-17T17:53:37.417Z,13.81
2022-10-17T17:56:14.203Z,13.70
2022-10-17T17:58:45.575Z,13.67
2022-10-17T18:01:18.120Z,13.71
2022-10-17T18:03:45.517Z,13.57
2022-10-17T18:06:13.469Z,13.60
2022-10-17T18:08:40.383Z,13.50
2022-10-17T18:11:07.378Z,13.43
2022-10-17T18:13:34.322Z,13.39
2022-10-17T18:16:02.413Z,13.34
2022-10-17T18:18:30.505Z,13.28
2022-10-17T18:21:01.274Z,13.33
2022-10-17T18:23:28.071Z,13.22
2022-10-17T18:25:57.033Z,13.13
2022-10-17T18:28:24.782Z,13.22
2022-10-17T18:30:52.000Z,13.14
2022-10-17T18:33:18.946Z,13.07
2022-10-17T18:35:45.961Z,13.12
2022-10-17T18:38:12.765Z,13.02
2022-10-17T18:40:39.701Z,13.02
2022-10-17T18:43:06.513Z,12.99
2022-10-17T18:45:33.421Z,12.95
2022-10-17T18:48:00.147Z,12.83
2022-10-17T18:50:27.104Z,12.87
2022-10-17T18:52:53.881Z,12.83
2022-10-17T18:55:20.836Z,12.85
2022-10-17T18:57:51.096Z,12.74
2022-10-17T19:00:18.080Z,12.84
2022-10-17T19:02:44.830Z,12.83
2022-10-17T19:05:11.747Z,12.70
2022-10-17T19:07:38.491Z,12.65
2022-10-17T19:10:05.657Z,12.72
2022-10-17T19:12:32.404Z,12.60
2022-10-17T19:14:59.350Z,12.56
2022-10-17T19:17:26.121Z,12.57
2022-10-17T19:19:54.993Z,12.46
2022-10-17T19:22:21.785Z,12.47
2022-10-17T19:24:48.708Z,12.42
2022-10-17T19:27:15.673Z,12.48
2022-10-17T19:29:44.047Z,12.44
2022-10-17T19:32:15.707Z,12.36
2022-10-17T19:34:44.863Z,12.25
2022-10-17T19:37:11.713Z,12.36
2022-10-17T19:39:38.732Z,12.28
2022-10-17T19:42:06.943Z,12.20
2022-10-17T19:44:34.910Z,12.25
2022-10-17T19:47:01.676Z,12.16
2022-10-17T19:49:28.765Z,12.17
2022-10-17T19:51:55.519Z,12.20
2022-10-17T19:54:22.580Z,12.15
2022-10-17T19:56:49.441Z,12.08
2022-10-17T19:59:17.200Z,12.14
2022-10-17T20:01:45.186Z,11.99
2022-10-17T20:04:12.499Z,11.92
2022-10-17T20:06:40.682Z,11.88
2022-10-17T20:09:11.038Z,11.86
2022-10-17T20:11:40.803Z,11.77
2022-10-17T20:14:08.491Z,11.79
2022-10-17T20:16:36.356Z,11.80
2022-10-17T20:19:10.066Z,11.82
2022-10-17T20:21:39.479Z,11.73
2022-10-17T20:24:08.491Z,11.72
2022-10-17T20:26:38.601Z,11.60
2022-10-17T20:29:11.243Z,11.60
2022-10-17T20:31:39.169Z,11.52
2022-10-17T20:34:06.332Z,11.48
2022-10-17T20:36:36.929Z,11.43
2022-10-17T20:39:05.018Z,11.44
2022-10-17T20:41:31.996Z,11.53
2022-10-17T20:43:58.959Z,11.55
2022-10-17T20:49:19.367Z,11.47
2022-10-17T20:51:46.582Z,11.52
2022-10-17T20:54:13.724Z,11.40
2022-10-17T20:56:43.729Z,11.42
2022-10-17T20:59:13.038Z,11.35
2022-10-17T21:01:40.033Z,11.30
2022-10-17T21:04:33.429Z,11.26
2022-10-17T21:06:53.912Z,11.37
2022-10-17T21:09:24.139Z,11.25
2022-10-17T21:11:55.057Z,11.23
2022-10-17T21:14:23.352Z,11.18
2022-10-17T21:16:52.236Z,11.25
2022-10-17T21:19:19.325Z,11.30
2022-10-17T21:21:46.582Z,11.09
2022-10-17T21:24:17.887Z,11.11
2022-10-17T21:26:46.509Z,11.10
2022-10-17T21:29:14.286Z,11.03
2022-10-17T21:31:43.774Z,10.98
2022-10-17T21:34:18.338Z,10.94
2022-10-17T21:36:45.736Z,10.98
2022-10-17T21:39:14.165Z,10.97
2022-10-17T21:41:41.640Z,10.86
2022-10-17T21:44:14.826Z,11.00
2022-10-17T21:46:42.470Z,11.00
2022-10-17T21:49:12.248Z,11.02
2022-10-17T21:51:39.749Z,10.98
2022-10-17T21:54:06.933Z,10.92
2022-10-17T21:56:34.824Z,10.86
2022-10-17T21:59:02.058Z,10.86
2022-10-17T22:01:34.919Z,10.83
2022-10-17T22:04:04.011Z,10.81
2022-10-17T22:06:41.358Z,10.71
2022-10-17T22:09:22.348Z,10.75
2022-10-17T22:11:52.495Z,10.70
2022-10-17T22:14:21.426Z,10.63
2022-10-17T22:16:49.224Z,10.63
2022-10-17T22:19:19.519Z,10.68
2022-10-17T22:21:46.537Z,10.60
2022-10-17T22:24:15.636Z,10.54
2022-10-17T22:26:44.592Z,10.69
2022-10-17T22:29:12.366Z,10.65
2022-10-17T22:31:39.530Z,10.65
2022-10-17T22:34:07.651Z,10.52
2022-10-17T22:36:35.694Z,10.49
2022-10-17T22:39:03.979Z,10.47
2022-10-17T22:41:30.711Z,10.33
2022-10-17T22:43:57.722Z,10.31
2022-10-17T22:46:24.725Z,10.27
2022-10-17T22:48:51.739Z,10.34
2022-10-17T22:51:18.892Z,10.31
2022-10-17T22:53:45.908Z,10.34
2022-10-17T22:56:15.472Z,10.34
2022-10-17T22:58:42.465Z,10.30
2022-10-17T23:01:14.315Z,10.31
2022-10-17T23:03:41.770Z,10.30
2022-10-17T23:06:08.533Z,10.37
2022-10-17T23:08:36.018Z,10.27
2022-10-17T23:11:02.813Z,10.31
2022-10-17T23:13:29.832Z,10.25
2022-10-17T23:15:57.434Z,10.22
2022-10-17T23:18:25.928Z,10.16
2022-10-17T23:20:53.515Z,10.16
2022-10-17T23:23:20.608Z,10.18
2022-10-17T23:25:47.464Z,10.14
2022-10-17T23:28:14.464Z,10.12
2022-10-17T23:30:41.276Z,10.18
2022-10-17T23:33:10.414Z,10.08
2022-10-17T23:35:37.177Z,10.04
2022-10-17T23:38:04.176Z,9.91
2022-10-17T23:40:30.932Z,9.99
2022-10-17T23:42:57.847Z,9.98
2022-10-17T23:45:24.662Z,9.87
2022-10-17T23:47:51.681Z,9.74
2022-10-17T23:50:18.710Z,9.81
2022-10-17T23:52:45.635Z,9.79
2022-10-17T23:55:12.421Z,9.70
2022-10-17T23:57:39.449Z,9.70
